Time;durP1;ratioP1;P1;durP2;ratioP2;P2;SDS_P1;SDS_P2;PMS_P1;PMS_P2;Temp;Humidity;BMP_temperature;BMP_pressure;BME280_temperature;BME280_humidity;BME280_pressure;Samples;Min_cycle;Max_cycle;Signal;HPM_P1;HPM_P2
2022/09/04 00:03:14;;;;;;;7.80;6.68;;;;;;;;;;10345041;28;20079;-68
2022/09/04 00:08:24;;;;;;;11.02;6.40;;;;;;;;;;10345016;28;20068;-69
2022/09/04 00:13:26;;;;;;;10.77;6.47;;;;;;;;;;10343834;28;20083;-69
2022/09/04 00:18:30;;;;;;;9.70;7.32;;;;;;;;;;10344321;28;20067;-69
2022/09/04 00:23:33;;;;;;;9.38;6.65;;;;;;;;;;10341174;28;20500;-69
2022/09/04 00:28:34;;;;;;;9.35;7.88;;;;;;;;;;10343769;28;20082;-68
2022/09/04 00:33:38;;;;;;;9.38;8.02;;;;;;;;;;10301548;28;20052;-68
2022/09/04 00:38:40;;;;;;;11.00;8.98;;;;;;;;;;10302745;28;20068;-68
2022/09/04 00:44:03;;;;;;;14.23;10.93;;;;;;;;;;10302166;28;20068;-68
2022/09/04 00:49:19;;;;;;;11.02;10.02;;;;;;;;;;10301157;28;20091;-68
2022/09/04 00:54:33;;;;;;;11.02;9.93;;;;;;;;;;10302185;28;20067;-68
2022/09/04 00:59:38;;;;;;;11.15;10.00;;;;;;;;;;10293389;28;20064;-69
2022/09/04 01:04:41;;;;;;;11.73;10.63;;;;;;;;;;10299487;28;20068;-69
2022/09/04 01:09:58;;;;;;;11.50;10.13;;;;;;;;;;10298181;28;20071;-69
2022/09/04 01:14:59;;;;;;;12.65;9.30;;;;;;;;;;10288738;28;20334;-68
2022/09/04 01:20:03;;;;;;;10.85;9.75;;;;;;;;;;10309798;28;20063;-68
2022/09/04 01:25:09;;;;;;;12.00;8.70;;;;;;;;;;10298775;28;20459;-67
2022/09/04 01:30:11;;;;;;;10.70;9.10;;;;;;;;;;10301503;28;20040;-68
2022/09/04 01:35:14;;;;;;;10.48;8.73;;;;;;;;;;10305621;28;20099;-68
2022/09/04 01:40:21;;;;;;;9.15;8.15;;;;;;;;;;10306224;28;20045;-68
2022/09/04 01:45:38;;;;;;;11.13;8.68;;;;;;;;;;10305574;28;20517;-65
2022/09/04 01:50:38;;;;;;;8.70;7.90;;;;;;;;;;10308253;28;20079;-65
2022/09/04 01:55:39;;;;;;;9.93;8.65;;;;;;;;;;10308716;28;20403;-68
2022/09/04 02:00:43;;;;;;;9.88;8.75;;;;;;;;;;10321285;28;20075;-66
2022/09/04 02:05:52;;;;;;;9.07;7.72;;;;;;;;;;10321235;28;20524;-66
2022/09/04 02:11:01;;;;;;;17.40;8.00;;;;;;;;;;10314665;28;20401;-66
2022/09/04 02:16:07;;;;;;;16.08;13.57;;;;;;;;;;10306091;28;20064;-66
2022/09/04 02:21:07;;;;;;;11.73;8.15;;;;;;;;;;10305947;28;20056;-66
2022/09/04 02:26:10;;;;;;;10.18;8.50;;;;;;;;;;10306994;28;20087;-66
2022/09/04 02:31:12;;;;;;;9.68;8.00;;;;;;;;;;10304085;28;20056;-66
2022/09/04 02:36:13;;;;;;;12.00;8.13;;;;;;;;;;10304655;28;20080;-66
2022/09/04 02:41:18;;;;;;;8.40;7.05;;;;;;;;;;10310235;28;20052;-67
2022/09/04 02:46:21;;;;;;;9.25;8.43;;;;;;;;;;10320448;28;20323;-66
2022/09/04 02:51:25;;;;;;;9.95;8.52;;;;;;;;;;10308236;28;20076;-66
2022/09/04 02:56:31;;;;;;;10.18;8.75;;;;;;;;;;10309626;28;20573;-66
2022/09/04 03:01:35;;;;;;;12.70;8.07;;;;;;;;;;10305304;28;20469;-66
2022/09/04 03:06:47;;;;;;;9.63;7.85;;;;;;;;;;10306024;28;20079;-66
2022/09/04 03:11:49;;;;;;;9.40;7.18;;;;;;;;;;10306658;28;20510;-66
2022/09/04 03:16:51;;;;;;;8.43;7.63;;;;;;;;;;10302835;28;20068;-66
2022/09/04 03:21:52;;;;;;;8.38;7.57;;;;;;;;;;10301695;28;20079;-67
2022/09/04 03:26:53;;;;;;;10.68;7.50;;;;;;;;;;10302204;28;20474;-66
2022/09/04 03:31:58;;;;;;;7.60;6.80;;;;;;;;;;10300922;28;20081;-67
2022/09/04 03:36:56;;;;;;;;;;;;;;;;;;10302377;28;20071;-67
2022/09/04 03:42:03;;;;;;;11.18;7.90;;;;;;;;;;10302756;28;20359;-66
2022/09/04 03:47:08;;;;;;;7.72;7.03;;;;;;;;;;10303962;28;20065;-66
2022/09/04 03:52:12;;;;;;;8.90;8.00;;;;;;;;;;10302501;28;20068;-68
2022/09/04 03:57:34;;;;;;;7.75;6.75;;;;;;;;;;10302172;28;20077;-68
2022/09/04 04:02:49;;;;;;;9.55;7.22;;;;;;;;;;10285323;28;20091;-67
2022/09/04 04:07:53;;;;;;;12.47;7.67;;;;;;;;;;10297150;28;20072;-67
2022/09/04 04:13:15;;;;;;;8.57;7.80;;;;;;;;;;10285306;28;20051;-66
2022/09/04 04:18:34;;;;;;;9.02;8.10;;;;;;;;;;10278281;28;20080;-66
2022/09/04 04:23:48;;;;;;;9.93;8.45;;;;;;;;;;10302299;28;20072;-66
2022/09/04 04:28:58;;;;;;;10.13;8.93;;;;;;;;;;10301913;28;20548;-68
2022/09/04 04:34:02;;;;;;;12.70;8.88;;;;;;;;;;10298967;28;20084;-67
2022/09/04 04:39:08;;;;;;;9.45;8.48;;;;;;;;;;10315792;28;20045;-66
2022/09/04 04:44:12;;;;;;;11.75;10.65;;;;;;;;;;10315617;28;20083;-66
2022/09/04 04:49:27;;;;;;;15.32;9.30;;;;;;;;;;10314684;28;20063;-67
2022/09/04 04:54:26;;;;;;;;;;;;;;;;;;10297404;28;20068;-67
2022/09/04 04:59:27;;;;;;;9.48;8.05;;;;;;;;;;10311957;28;19920;-67
2022/09/04 05:04:31;;;;;;;11.05;9.95;;;;;;;;;;10300467;28;20080;-66
2022/09/04 05:09:30;;;;;;;;;;;;;;;;;;10295221;28;20465;-67
2022/09/04 05:14:33;;;;;;;10.30;8.50;;;;;;;;;;10301317;28;20342;-67
2022/09/04 05:19:35;;;;;;;10.38;8.45;;;;;;;;;;10299170;28;20518;-68
2022/09/04 05:24:36;;;;;;;10.30;9.32;;;;;;;;;;10313746;28;20548;-67
2022/09/04 05:29:46;;;;;;;12.00;9.93;;;;;;;;;;10315149;28;20067;-67
2022/09/04 05:34:57;;;;;;;8.45;7.65;;;;;;;;;;10294395;28;20080;-67
2022/09/04 05:40:02;;;;;;;9.68;8.75;;;;;;;;;;10299235;28;20087;-67
2022/09/04 05:45:03;;;;;;;14.65;9.55;;;;;;;;;;10312368;28;20517;-67
2022/09/04 05:50:09;;;;;;;12.70;11.40;;;;;;;;;;10308363;28;20049;-67
2022/09/04 05:55:21;;;;;;;15.73;11.77;;;;;;;;;;10316398;28;20044;-66
2022/09/04 06:00:19;;;;;;;11.10;8.25;;;;;;;;;;10297407;28;20076;-66
2022/09/04 06:05:27;;;;;;;11.65;8.77;;;;;;;;;;10303091;28;20060;-66
2022/09/04 06:10:29;;;;;;;10.05;9.00;;;;;;;;;;10311766;28;20075;-66
2022/09/04 06:15:35;;;;;;;9.20;8.40;;;;;;;;;;10311351;28;20064;-67
2022/09/04 06:20:39;;;;;;;8.35;7.55;;;;;;;;;;10306577;28;21625;-66
2022/09/04 06:25:43;;;;;;;8.98;8.07;;;;;;;;;;10311812;28;20491;-66
2022/09/04 06:30:45;;;;;;;10.47;7.80;;;;;;;;;;10316381;28;20068;-66
2022/09/04 06:36:07;;;;;;;9.63;8.73;;;;;;;;;;10312774;28;20095;-67
2022/09/04 06:41:14;;;;;;;8.27;7.47;;;;;;;;;;10279960;28;20095;-67
2022/09/04 06:46:16;;;;;;;13.27;7.47;;;;;;;;;;10299349;28;20415;-67
2022/09/04 06:51:22;;;;;;;10.20;7.22;;;;;;;;;;10301249;28;20079;-68
2022/09/04 06:56:32;;;;;;;8.77;6.82;;;;;;;;;;10298960;28;20521;-67
2022/09/04 07:01:39;;;;;;;10.40;7.85;;;;;;;;;;10301218;28;20447;-65
2022/09/04 07:06:45;;;;;;;8.88;8.07;;;;;;;;;;10300565;28;20068;-68
2022/09/04 07:11:56;;;;;;;8.02;6.75;;;;;;;;;;10305560;28;20451;-67
2022/09/04 07:17:00;;;;;;;7.78;6.22;;;;;;;;;;10301646;28;20075;-66
2022/09/04 07:22:06;;;;;;;7.67;6.87;;;;;;;;;;10303647;28;20494;-67
2022/09/04 07:27:11;;;;;;;6.65;5.95;;;;;;;;;;10304262;28;20091;-67
2022/09/04 07:32:17;;;;;;;6.22;5.05;;;;;;;;;;10303407;28;20072;-67
2022/09/04 07:37:23;;;;;;;8.45;6.13;;;;;;;;;;10302433;28;20078;-68
2022/09/04 07:42:28;;;;;;;9.48;6.93;;;;;;;;;;10305248;28;20057;-68
2022/09/04 07:47:30;;;;;;;9.23;5.43;;;;;;;;;;10302572;28;20501;-67
2022/09/04 07:52:41;;;;;;;7.80;5.88;;;;;;;;;;10303603;28;20447;-67
2022/09/04 07:57:50;;;;;;;9.52;4.60;;;;;;;;;;10297641;28;20075;-67
2022/09/04 08:02:55;;;;;;;6.55;4.45;;;;;;;;;;10299992;28;20064;-67
2022/09/04 08:08:20;;;;;;;4.97;4.53;;;;;;;;;;10303191;28;20068;-68
2022/09/04 08:13:21;;;;;;;;;;;;;;;;;;10302985;28;20075;-67
2022/09/04 08:18:35;;;;;;;7.15;4.95;;;;;;;;;;10302627;28;19964;-68
2022/09/04 08:23:46;;;;;;;5.63;5.03;;;;;;;;;;10297880;28;20075;-67
2022/09/04 08:28:56;;;;;;;9.27;5.20;;;;;;;;;;10302143;28;20098;-67
2022/09/04 08:34:12;;;;;;;8.60;6.90;;;;;;;;;;10300277;28;20045;-67
2022/09/04 08:39:14;;;;;;;7.13;4.68;;;;;;;;;;10301123;28;20080;-67
2022/09/04 08:44:27;;;;;;;5.07;4.00;;;;;;;;;;10302340;28;20486;-67
2022/09/04 08:49:45;;;;;;;6.10;3.83;;;;;;;;;;10296883;28;20059;-67
2022/09/04 08:54:57;;;;;;;6.30;4.90;;;;;;;;;;10300316;28;20068;-67
2022/09/04 09:00:05;;;;;;;6.93;3.25;;;;;;;;;;10298517;28;20095;-67
2022/09/04 09:05:25;;;;;;;6.47;3.75;;;;;;;;;;10316289;28;20083;-67
2022/09/04 09:10:34;;;;;;;3.95;3.47;;;;;;;;;;10306708;28;20072;-67
2022/09/04 09:15:48;;;;;;;9.38;4.07;;;;;;;;;;10311050;28;20060;-66
2022/09/04 09:20:50;;;;;;;23.85;21.35;;;;;;;;;;10298383;28;20142;-67
2022/09/04 09:25:51;;;;;;;7.03;6.18;;;;;;;;;;10298059;28;20079;-67
2022/09/04 09:31:05;;;;;;;10.18;4.43;;;;;;;;;;10301392;28;20083;-65
2022/09/04 09:36:14;;;;;;;9.77;7.10;;;;;;;;;;10313145;28;20069;-65
2022/09/04 09:41:23;;;;;;;6.25;4.60;;;;;;;;;;10309678;28;20084;-66
2022/09/04 09:46:49;;;;;;;12.82;9.02;;;;;;;;;;10303606;28;20619;-66
2022/09/04 09:52:08;;;;;;;5.80;5.25;;;;;;;;;;10318233;28;20075;-65
2022/09/04 09:57:24;;;;;;;4.22;3.83;;;;;;;;;;10316537;28;20528;-64
2022/09/04 10:03:00;;;;;;;8.40;5.97;;;;;;;;;;10289021;28;20053;-65
2022/09/04 10:08:09;;;;;;;5.10;3.75;;;;;;;;;;10305463;28;20045;-64
2022/09/04 10:13:19;;;;;;;5.20;3.75;;;;;;;;;;10314552;28;20091;-66
2022/09/04 10:18:38;;;;;;;7.30;4.53;;;;;;;;;;10310624;28;20068;-65
2022/09/04 10:23:43;;;;;;;5.43;3.95;;;;;;;;;;10323232;28;20079;-65
2022/09/04 10:28:56;;;;;;;8.88;7.10;;;;;;;;;;10323500;28;20486;-64
2022/09/04 10:34:00;;;;;;;7.47;3.70;;;;;;;;;;10320934;28;20303;-66
2022/09/04 10:44:53;;;;;;;5.78;4.10;;;;;;;;;;10286197;28;20080;-65
2022/09/04 10:50:11;;;;;;;4.07;3.78;;;;;;;;;;10311054;28;20075;-66
2022/09/04 10:55:27;;;;;;;5.03;3.83;;;;;;;;;;10315292;28;20069;-64
2022/09/04 11:00:34;;;;;;;4.93;3.83;;;;;;;;;;10314024;28;20071;-66
2022/09/04 11:05:36;;;;;;;4.25;3.25;;;;;;;;;;10307586;28;20068;-66
2022/09/04 11:10:43;;;;;;;5.45;3.58;;;;;;;;;;10310249;28;20521;-66
2022/09/04 11:15:47;;;;;;;5.50;4.93;;;;;;;;;;10313868;28;20068;-66
2022/09/04 11:21:01;;;;;;;5.75;3.17;;;;;;;;;;10312787;28;20106;-66
2022/09/04 11:26:15;;;;;;;3.25;2.95;;;;;;;;;;10297456;28;20076;-66
2022/09/04 11:31:25;;;;;;;4.13;3.42;;;;;;;;;;10311080;28;20068;-66
2022/09/04 11:36:38;;;;;;;7.03;5.03;;;;;;;;;;10314863;28;20076;-66
2022/09/04 11:41:49;;;;;;;5.28;4.38;;;;;;;;;;10313098;28;20486;-66
2022/09/04 11:47:02;;;;;;;3.55;3.25;;;;;;;;;;10315896;28;20116;-66
2022/09/04 11:52:15;;;;;;;5.25;4.75;;;;;;;;;;10304163;28;20080;-65
2022/09/04 11:57:22;;;;;;;4.90;3.80;;;;;;;;;;10308921;28;20064;-65
2022/09/04 12:02:38;;;;;;;3.50;3.15;;;;;;;;;;10306375;28;20060;-64
2022/09/04 12:07:45;;;;;;;3.88;3.28;;;;;;;;;;10307708;28;20080;-66
2022/09/04 12:13:02;;;;;;;11.75;10.65;;;;;;;;;;10309198;28;20111;-66
2022/09/04 12:18:44;;;;;;;7.43;4.30;;;;;;;;;;10307800;28;20080;-66
2022/09/04 12:23:57;;;;;;;4.47;3.50;;;;;;;;;;10183571;28;20066;-65
2022/09/04 12:29:16;;;;;;;5.30;3.83;;;;;;;;;;10279893;28;20080;-64
2022/09/04 12:34:39;;;;;;;5.13;3.92;;;;;;;;;;10273707;28;20509;-65
2022/09/04 12:39:51;;;;;;;5.15;4.00;;;;;;;;;;10303364;28;20079;-66
2022/09/04 12:44:56;;;;;;;3.92;3.53;;;;;;;;;;10307952;28;20060;-65
2022/09/04 12:50:10;;;;;;;5.18;3.88;;;;;;;;;;10307437;28;20083;-65
2022/09/04 12:55:13;;;;;;;3.70;3.17;;;;;;;;;;10298774;28;20068;-65
2022/09/04 13:00:12;;;;;;;4.15;3.22;;;;;;;;;;10308474;28;20072;-66
2022/09/04 13:05:19;;;;;;;4.38;3.97;;;;;;;;;;10300558;28;20040;-65
2022/09/04 13:10:21;;;;;;;7.43;6.13;;;;;;;;;;10301491;28;20428;-65
2022/09/04 13:15:25;;;;;;;4.40;4.00;;;;;;;;;;10309759;28;20099;-66
2022/09/04 13:20:23;;;;;;;;;;;;;;;;;;10313570;28;20072;-64
2022/09/04 13:25:28;;;;;;;5.97;4.55;;;;;;;;;;10314921;28;19968;-65
2022/09/04 13:30:27;;;;;;;4.40;3.67;;;;;;;;;;10308053;28;20093;-66
2022/09/04 13:35:35;;;;;;;6.00;4.20;;;;;;;;;;10295963;28;20056;-65
2022/09/04 13:40:46;;;;;;;4.25;3.33;;;;;;;;;;10300820;28;20918;-66
2022/09/04 13:45:45;;;;;;;3.95;3.58;;;;;;;;;;10304225;28;20087;-65
2022/09/04 13:50:47;;;;;;;4.38;3.95;;;;;;;;;;10293681;28;20097;-64
2022/09/04 13:55:49;;;;;;;5.60;4.20;;;;;;;;;;10307338;28;20080;-64
2022/09/04 14:00:50;;;;;;;6.63;4.85;;;;;;;;;;10308402;28;20088;-64
2022/09/04 14:05:48;;;;;;;7.18;6.13;;;;;;;;;;10302903;28;20068;-65
2022/09/04 14:11:01;;;;;;;6.78;5.90;;;;;;;;;;10304824;28;20068;-65
2022/09/04 14:16:05;;;;;;;4.40;3.85;;;;;;;;;;10301024;28;20060;-65
2022/09/04 14:21:09;;;;;;;5.03;3.28;;;;;;;;;;10309631;28;20064;-65
2022/09/04 14:26:16;;;;;;;4.18;3.55;;;;;;;;;;10299501;28;20065;-66
2022/09/04 14:31:20;;;;;;;7.22;4.15;;;;;;;;;;10302169;28;20067;-65
2022/09/04 14:36:25;;;;;;;4.03;2.95;;;;;;;;;;10307792;28;20057;-65
2022/09/04 14:41:32;;;;;;;6.30;4.63;;;;;;;;;;10309722;28;20442;-65
2022/09/04 14:46:37;;;;;;;6.93;5.00;;;;;;;;;;10322585;28;20055;-65
2022/09/04 14:51:37;;;;;;;7.45;4.43;;;;;;;;;;10324557;28;20072;-65
2022/09/04 14:56:41;;;;;;;4.68;4.20;;;;;;;;;;10326737;28;20064;-64
2022/09/04 15:01:39;;;;;;;;;;;;;;;;;;10318549;28;20080;-65
2022/09/04 15:06:43;;;;;;;6.57;5.28;;;;;;;;;;10306484;28;19947;-66
2022/09/04 15:12:14;;;;;;;6.60;5.25;;;;;;;;;;10300550;28;20073;-66
2022/09/04 15:17:25;;;;;;;9.60;6.20;;;;;;;;;;10304704;28;20067;-65
2022/09/04 15:22:26;;;;;;;5.68;4.68;;;;;;;;;;10302362;28;20076;-65
2022/09/04 15:27:31;;;;;;;5.63;4.80;;;;;;;;;;10300933;28;20076;-67
2022/09/04 15:32:31;;;;;;;6.03;4.90;;;;;;;;;;10299630;28;20075;-69
2022/09/04 15:37:29;;;;;;;4.82;4.43;;;;;;;;;;10301806;28;20560;-66
2022/09/04 15:42:34;;;;;;;7.80;5.80;;;;;;;;;;10315729;28;20445;-67
2022/09/04 15:47:45;;;;;;;7.00;6.38;;;;;;;;;;10317747;28;20086;-66
2022/09/04 15:52:44;;;;;;;5.60;4.70;;;;;;;;;;10312166;28;20075;-65
2022/09/04 15:57:56;;;;;;;4.47;3.90;;;;;;;;;;10285059;28;20044;-66
2022/09/04 16:02:57;;;;;;;6.75;4.50;;;;;;;;;;10310747;28;20083;-66
2022/09/04 16:08:02;;;;;;;8.02;6.10;;;;;;;;;;10316339;28;20566;-66
2022/09/04 16:13:05;;;;;;;8.30;3.92;;;;;;;;;;10316988;28;20036;-66
2022/09/04 16:18:09;;;;;;;4.45;3.50;;;;;;;;;;10300653;28;20072;-69
2022/09/04 16:23:10;;;;;;;4.47;3.97;;;;;;;;;;10301605;28;20528;-65
2022/09/04 16:28:13;;;;;;;5.85;3.85;;;;;;;;;;10300391;28;20080;-69
2022/09/04 16:33:21;;;;;;;6.57;4.22;;;;;;;;;;10315293;28;20080;-69
2022/09/04 16:38:30;;;;;;;5.10;3.50;;;;;;;;;;10315843;28;20067;-69
2022/09/04 16:43:33;;;;;;;5.50;3.85;;;;;;;;;;10315024;28;20064;-68
2022/09/04 16:48:33;;;;;;;6.05;3.97;;;;;;;;;;10297134;28;20072;-68
2022/09/04 16:53:35;;;;;;;9.80;4.03;;;;;;;;;;10299860;28;20485;-69
2022/09/04 16:58:44;;;;;;;8.75;4.47;;;;;;;;;;10300222;28;20087;-67
2022/09/04 17:03:48;;;;;;;7.70;4.25;;;;;;;;;;10306411;28;20469;-68
2022/09/04 17:08:52;;;;;;;5.88;4.28;;;;;;;;;;10307925;28;20446;-67
2022/09/04 17:14:01;;;;;;;5.30;4.10;;;;;;;;;;10303553;28;20072;-67
2022/09/04 17:19:12;;;;;;;10.25;4.90;;;;;;;;;;10305417;28;20063;-67
2022/09/04 17:24:14;;;;;;;4.47;3.55;;;;;;;;;;10309859;28;20064;-68
2022/09/04 17:29:36;;;;;;;4.57;3.47;;;;;;;;;;10302574;28;20080;-67
2022/09/04 17:34:47;;;;;;;7.82;3.53;;;;;;;;;;10313186;28;20528;-68
2022/09/04 17:40:09;;;;;;;5.72;3.22;;;;;;;;;;10305226;28;20513;-68
2022/09/04 17:45:37;;;;;;;6.05;3.28;;;;;;;;;;10308913;28;20087;-68
2022/09/04 17:50:37;;;;;;;3.65;3.28;;;;;;;;;;10306782;28;20077;-68
2022/09/04 17:55:36;;;;;;;4.65;3.28;;;;;;;;;;10308942;28;20461;-68
2022/09/04 18:00:52;;;;;;;5.68;3.30;;;;;;;;;;10314148;28;20422;-68
2022/09/04 18:06:14;;;;;;;5.10;3.30;;;;;;;;;;10322299;28;20135;-69
2022/09/04 18:11:16;;;;;;;7.20;3.20;;;;;;;;;;10307201;28;20076;-68
2022/09/04 18:16:33;;;;;;;6.32;3.88;;;;;;;;;;10305822;28;20038;-68
2022/09/04 18:21:41;;;;;;;4.70;3.55;;;;;;;;;;10312753;28;20489;-70
2022/09/04 18:26:41;;;;;;;3.65;3.00;;;;;;;;;;10316102;28;20061;-68
2022/09/04 18:31:43;;;;;;;2.95;2.65;;;;;;;;;;10310836;28;20481;-66
2022/09/04 18:37:03;;;;;;;4.25;2.85;;;;;;;;;;10313062;28;20083;-65
2022/09/04 18:42:26;;;;;;;4.60;2.78;;;;;;;;;;10308419;28;20072;-66
2022/09/04 18:47:49;;;;;;;3.88;2.90;;;;;;;;;;10315399;28;20091;-65
2022/09/04 18:53:11;;;;;;;8.23;3.50;;;;;;;;;;10313025;28;20079;-65
2022/09/04 18:58:34;;;;;;;4.05;3.25;;;;;;;;;;10305018;28;20516;-65
2022/09/04 19:03:40;;;;;;;5.18;3.88;;;;;;;;;;10285807;28;20088;-66
2022/09/04 19:08:44;;;;;;;3.70;3.33;;;;;;;;;;10302081;28;20079;-65
2022/09/04 19:13:44;;;;;;;5.03;3.63;;;;;;;;;;10304586;28;20094;-65
2022/09/04 19:18:48;;;;;;;4.97;4.03;;;;;;;;;;10308348;28;20095;-67
2022/09/04 19:23:49;;;;;;;5.30;3.47;;;;;;;;;;10310959;28;20079;-65
2022/09/04 19:28:50;;;;;;;7.82;3.38;;;;;;;;;;10317067;28;20073;-65
2022/09/04 19:33:54;;;;;;;3.80;2.38;;;;;;;;;;10319761;28;20087;-65
2022/09/04 19:38:54;;;;;;;;;;;;;;;;;;10308595;28;20079;-66
2022/09/04 19:44:21;;;;;;;5.75;3.70;;;;;;;;;;10308645;28;19962;-65
2022/09/04 19:49:47;;;;;;;3.70;2.75;;;;;;;;;;10280824;28;20068;-65
2022/09/04 19:55:12;;;;;;;5.32;2.50;;;;;;;;;;10283411;28;20577;-66
2022/09/04 20:00:25;;;;;;;5.10;2.50;;;;;;;;;;10321486;28;20082;-65
2022/09/04 20:05:49;;;;;;;3.28;2.97;;;;;;;;;;10325706;28;20317;-65
2022/09/04 20:10:52;;;;;;;4.40;2.78;;;;;;;;;;10310429;28;20088;-66
2022/09/04 20:15:53;;;;;;;3.47;3.00;;;;;;;;;;10302890;28;20064;-64
2022/09/04 20:20:57;;;;;;;2.90;2.55;;;;;;;;;;10299998;28;20126;-65
2022/09/04 20:25:58;;;;;;;5.03;3.17;;;;;;;;;;10300713;28;20148;-66
2022/09/04 20:31:02;;;;;;;4.03;2.90;;;;;;;;;;10304702;28;20490;-66
2022/09/04 20:36:24;;;;;;;6.10;3.20;;;;;;;;;;10322459;28;20079;-66
2022/09/04 20:41:24;;;;;;;3.78;2.60;;;;;;;;;;10309735;28;20049;-66
2022/09/04 20:46:24;;;;;;;2.95;2.70;;;;;;;;;;10323619;28;20099;-66
2022/09/04 20:51:50;;;;;;;5.00;3.22;;;;;;;;;;10304190;28;20072;-66
2022/09/04 20:57:11;;;;;;;4.15;2.67;;;;;;;;;;10295954;28;20493;-65
2022/09/04 21:02:37;;;;;;;6.05;3.47;;;;;;;;;;10309315;28;20123;-66
2022/09/04 21:08:02;;;;;;;7.63;3.00;;;;;;;;;;10302262;28;20076;-66
2022/09/04 21:13:03;;;;;;;7.82;3.33;;;;;;;;;;10297050;28;20074;-65
2022/09/04 21:18:20;;;;;;;3.88;2.78;;;;;;;;;;10298862;28;20153;-66
2022/09/04 21:23:39;;;;;;;6.70;3.08;;;;;;;;;;10298203;28;20091;-66
2022/09/04 21:28:58;;;;;;;4.45;3.00;;;;;;;;;;10293738;28;20076;-65
2022/09/04 21:34:14;;;;;;;4.82;2.80;;;;;;;;;;10295939;28;20084;-66
2022/09/04 21:39:27;;;;;;;3.78;3.03;;;;;;;;;;10301310;28;20098;-66
2022/09/04 21:44:45;;;;;;;3.40;2.40;;;;;;;;;;10292196;28;20064;-66
2022/09/04 21:50:13;;;;;;;2.80;2.50;;;;;;;;;;10298898;28;20079;-66
2022/09/04 21:55:18;;;;;;;2.70;2.50;;;;;;;;;;10308671;28;20494;-66
2022/09/04 22:00:51;;;;;;;4.23;2.37;;;;;;;;;;10308286;28;20155;-66
2022/09/04 22:06:13;;;;;;;4.95;2.80;;;;;;;;;;10312658;28;20056;-66
2022/09/04 22:11:31;;;;;;;4.75;2.72;;;;;;;;;;10300846;28;20069;-66
2022/09/04 22:17:03;;;;;;;5.63;3.10;;;;;;;;;;10305860;28;20510;-66
2022/09/04 22:22:08;;;;;;;6.18;3.08;;;;;;;;;;10305944;28;20175;-66
2022/09/04 22:27:06;;;;;;;;;;;;;;;;;;10308700;28;20115;-65
2022/09/04 22:32:23;;;;;;;3.28;2.97;;;;;;;;;;10315425;28;20408;-65
2022/09/04 22:37:33;;;;;;;7.85;2.92;;;;;;;;;;10320414;28;20547;-66
2022/09/04 22:42:39;;;;;;;4.65;3.30;;;;;;;;;;10320467;28;20068;-66
2022/09/04 22:47:47;;;;;;;4.40;2.80;;;;;;;;;;10320186;28;20102;-66
2022/09/04 22:52:57;;;;;;;7.15;3.35;;;;;;;;;;10298468;28;20072;-66
2022/09/04 22:58:03;;;;;;;8.00;3.92;;;;;;;;;;10298406;28;20069;-68
2022/09/04 23:03:18;;;;;;;7.57;3.50;;;;;;;;;;10303992;28;20087;-66
2022/09/04 23:08:22;;;;;;;4.03;2.92;;;;;;;;;;10305387;28;20072;-65
2022/09/04 23:14:01;;;;;;;5.70;3.53;;;;;;;;;;10305277;28;20076;-67
2022/09/04 23:19:21;;;;;;;3.20;2.72;;;;;;;;;;10315661;28;20068;-66
2022/09/04 23:24:52;;;;;;;5.00;2.92;;;;;;;;;;10317591;28;20068;-65
2022/09/04 23:30:19;;;;;;;3.47;2.97;;;;;;;;;;10317528;28;20095;-66
2022/09/04 23:35:31;;;;;;;5.93;3.28;;;;;;;;;;10301693;28;20477;-65
2022/09/04 23:40:38;;;;;;;3.67;2.95;;;;;;;;;;10300664;28;20060;-65
2022/09/04 23:45:53;;;;;;;4.43;3.20;;;;;;;;;;10300664;28;20083;-67
2022/09/04 23:51:02;;;;;;;3.40;3.10;;;;;;;;;;10302126;28;20498;-66
2022/09/04 23:56:07;;;;;;;4.13;3.72;;;;;;;;;;10303158;28;20075;-67
